createdAt,value
2022-07-29T00:01:53.734Z,1.85
2022-07-29T00:04:59.997Z,2.30
2022-07-29T00:08:09.347Z,2.00
2022-07-29T00:11:16.731Z,2.67
2022-07-29T00:14:22.446Z,2.13
2022-07-29T00:17:27.990Z,2.35
2022-07-29T00:20:33.998Z,2.33
2022-07-29T00:23:39.416Z,2.75
2022-07-29T00:26:45.128Z,2.80
2022-07-29T00:29:51.063Z,2.38
2022-07-29T00:32:56.716Z,2.35
2022-07-29T00:36:02.232Z,1.88
2022-07-29T00:39:07.724Z,1.80
2022-07-29T00:42:13.578Z,1.70
2022-07-29T00:45:20.170Z,2.17
2022-07-29T00:48:26.700Z,2.20
2022-07-29T00:51:33.307Z,2.40
2022-07-29T00:54:44.638Z,2.55
2022-07-29T00:57:51.713Z,2.10
2022-07-29T01:00:57.355Z,2.30
2022-07-29T01:04:03.007Z,2.10
2022-07-29T01:07:08.799Z,1.92
2022-07-29T01:10:17.227Z,2.47
2022-07-29T01:13:22.961Z,1.73
2022-07-29T01:16:43.476Z,2.22
2022-07-29T01:20:15.241Z,1.83
2022-07-29T01:23:47.988Z,2.55
2022-07-29T01:27:18.261Z,2.40
2022-07-29T01:30:26.365Z,3.15
2022-07-29T01:33:52.150Z,2.97
2022-07-29T01:37:19.358Z,2.67
2022-07-29T01:40:32.541Z,2.70
2022-07-29T01:43:45.616Z,2.28
2022-07-29T01:46:58.098Z,3.90
2022-07-29T01:50:10.055Z,3.03
2022-07-29T01:53:27.164Z,2.95
2022-07-29T01:56:35.104Z,3.42
2022-07-29T01:59:43.971Z,2.85
2022-07-29T02:02:52.705Z,2.40
2022-07-29T02:06:02.505Z,3.00
2022-07-29T02:09:09.369Z,2.63
2022-07-29T02:12:18.179Z,2.88
2022-07-29T02:15:27.925Z,3.20
2022-07-29T02:18:35.334Z,2.85
2022-07-29T02:21:42.070Z,2.58
2022-07-29T02:24:50.165Z,2.58
2022-07-29T02:27:58.340Z,3.10
2022-07-29T02:31:06.388Z,3.25
2022-07-29T02:34:13.610Z,4.15
2022-07-29T02:37:20.964Z,3.63
2022-07-29T02:40:26.806Z,3.55
2022-07-29T02:43:33.642Z,2.85
2022-07-29T02:46:46.899Z,3.42
2022-07-29T02:50:00.634Z,3.30
2022-07-29T02:53:24.004Z,4.20
2022-07-29T02:56:36.030Z,4.00
2022-07-29T02:59:44.869Z,3.47
2022-07-29T03:02:55.046Z,3.95
2022-07-29T03:06:04.556Z,3.08
2022-07-29T03:09:13.707Z,3.78
2022-07-29T03:12:20.054Z,3.67
2022-07-29T03:15:27.440Z,4.38
2022-07-29T03:18:34.169Z,3.25
2022-07-29T03:21:40.077Z,3.90
2022-07-29T03:24:45.466Z,3.88
2022-07-29T03:27:52.925Z,4.57
2022-07-29T03:30:58.161Z,3.60
2022-07-29T03:34:04.605Z,3.78
2022-07-29T03:37:10.207Z,4.43
2022-07-29T03:40:24.756Z,3.67
2022-07-29T03:43:39.036Z,3.88
2022-07-29T03:47:01.594Z,3.60
2022-07-29T03:50:10.688Z,3.78
2022-07-29T03:53:17.602Z,4.20
2022-07-29T03:56:25.017Z,4.47
2022-07-29T03:59:32.003Z,5.30
2022-07-29T04:02:39.528Z,4.78
2022-07-29T04:05:44.936Z,5.10
2022-07-29T04:08:50.483Z,4.35
2022-07-29T04:12:00.716Z,5.35
2022-07-29T04:15:09.154Z,5.15
2022-07-29T04:18:14.174Z,5.47
2022-07-29T04:21:19.477Z,4.80
2022-07-29T04:24:24.950Z,4.65
2022-07-29T04:27:30.337Z,4.90
2022-07-29T04:30:38.639Z,5.82
2022-07-29T04:33:44.473Z,5.13
2022-07-29T04:36:50.285Z,5.25
2022-07-29T04:39:55.641Z,5.60
2022-07-29T04:43:05.693Z,7.20
2022-07-29T04:46:11.707Z,7.50
2022-07-29T04:49:17.727Z,7.93
2022-07-29T04:52:24.321Z,7.53
2022-07-29T04:55:29.793Z,7.53
2022-07-29T04:58:38.764Z,7.55
2022-07-29T05:01:44.499Z,8.20
2022-07-29T05:04:50.454Z,7.75
2022-07-29T05:07:56.578Z,8.13
2022-07-29T05:11:12.515Z,8.00
2022-07-29T05:14:19.947Z,8.18
2022-07-29T05:17:25.597Z,8.20
2022-07-29T05:20:32.400Z,8.55
2022-07-29T05:23:37.774Z,8.23
2022-07-29T05:26:44.305Z,9.07
2022-07-29T05:29:49.881Z,8.70
2022-07-29T05:32:55.960Z,8.38
2022-07-29T05:36:01.364Z,8.45
2022-07-29T05:39:06.756Z,9.40
2022-07-29T05:42:13.155Z,8.32
2022-07-29T05:45:18.821Z,8.27
2022-07-29T05:48:24.724Z,7.97
2022-07-29T05:51:31.303Z,8.00
2022-07-29T05:54:37.496Z,6.60
2022-07-29T05:57:44.706Z,6.10
2022-07-29T06:00:50.713Z,6.18
2022-07-29T06:03:56.737Z,6.05
2022-07-29T06:07:02.998Z,6.40
2022-07-29T06:10:09.272Z,6.07
2022-07-29T06:13:17.142Z,6.75
2022-07-29T06:16:29.693Z,6.60
2022-07-29T06:19:37.637Z,6.15
2022-07-29T06:22:43.238Z,5.75
2022-07-29T06:25:49.894Z,5.68
2022-07-29T06:28:55.788Z,5.72
2022-07-29T06:32:01.732Z,5.43
2022-07-29T06:35:38.008Z,5.13
2022-07-29T06:38:40.390Z,4.63
2022-07-29T06:41:52.783Z,4.40
2022-07-29T06:45:08.984Z,3.60
2022-07-29T06:48:14.863Z,4.80
2022-07-29T06:51:22.553Z,4.85
2022-07-29T06:54:28.960Z,3.72
2022-07-29T06:57:35.086Z,3.90
2022-07-29T07:00:40.693Z,3.92
2022-07-29T07:03:46.414Z,4.82
2022-07-29T07:06:51.907Z,4.20
2022-07-29T07:09:57.460Z,3.90
2022-07-29T07:13:03.212Z,3.38
2022-07-29T07:16:08.791Z,3.45
2022-07-29T07:19:14.258Z,4.20
2022-07-29T07:22:20.015Z,3.90
2022-07-29T07:25:25.652Z,4.38
2022-07-29T07:28:31.398Z,4.80
2022-07-29T07:31:39.339Z,4.28
2022-07-29T07:34:44.966Z,4.28
2022-07-29T07:37:50.607Z,4.63
2022-07-29T07:40:55.966Z,4.72
2022-07-29T07:44:01.403Z,4.72
2022-07-29T07:47:12.321Z,5.35
2022-07-29T07:50:19.495Z,5.03
2022-07-29T07:53:25.440Z,5.55
2022-07-29T07:56:34.876Z,5.00
2022-07-29T07:59:41.745Z,5.43
2022-07-29T08:02:47.197Z,3.97
2022-07-29T08:05:53.169Z,5.25
2022-07-29T08:09:19.485Z,4.88
2022-07-29T08:12:24.621Z,5.38
2022-07-29T08:15:29.992Z,5.10
2022-07-29T08:18:35.797Z,5.00
2022-07-29T08:21:41.511Z,5.22
2022-07-29T08:24:57.387Z,5.32
2022-07-29T08:28:03.481Z,4.25
2022-07-29T08:31:08.613Z,4.30
2022-07-29T08:34:14.404Z,3.38
2022-07-29T08:37:19.656Z,4.05
2022-07-29T08:40:32.292Z,3.85
2022-07-29T08:43:39.533Z,3.90
2022-07-29T08:46:45.739Z,3.30
2022-07-29T08:49:51.751Z,4.43
2022-07-29T08:52:59.939Z,3.70
2022-07-29T08:56:06.677Z,3.20
2022-07-29T08:59:14.239Z,4.30
2022-07-29T09:02:22.880Z,3.08
2022-07-29T09:05:29.139Z,3.13
2022-07-29T09:08:34.571Z,2.70
2022-07-29T09:11:40.439Z,2.88
2022-07-29T09:14:45.900Z,3.20
2022-07-29T09:17:51.350Z,3.20
2022-07-29T09:21:15.641Z,3.00
2022-07-29T09:24:21.251Z,2.75
2022-07-29T09:27:28.062Z,3.25
2022-07-29T09:30:33.796Z,2.58
2022-07-29T09:33:41.919Z,2.60
2022-07-29T09:36:49.927Z,2.72
2022-07-29T09:39:55.219Z,2.33
2022-07-29T09:43:12.264Z,2.30
2022-07-29T09:46:17.936Z,2.78
2022-07-29T09:49:24.142Z,2.45
2022-07-29T09:52:31.679Z,2.88
2022-07-29T09:55:53.231Z,2.42
2022-07-29T09:59:09.417Z,3.15
2022-07-29T10:02:20.289Z,2.83
2022-07-29T10:05:36.581Z,2.78
2022-07-29T10:08:43.214Z,2.72
2022-07-29T10:12:12.301Z,2.70
2022-07-29T10:15:19.337Z,2.63
2022-07-29T10:18:24.539Z,3.00
2022-07-29T10:21:35.244Z,3.20
2022-07-29T10:24:42.256Z,2.55
2022-07-29T10:27:49.320Z,2.78
2022-07-29T10:31:03.232Z,3.47
2022-07-29T10:34:32.419Z,2.58
2022-07-29T10:38:33.089Z,3.00
2022-07-29T10:42:09.137Z,3.55
2022-07-29T10:45:18.779Z,4.60
2022-07-29T10:48:25.150Z,2.50
2022-07-29T10:52:11.805Z,2.63
2022-07-29T10:55:38.055Z,2.80
2022-07-29T10:58:43.775Z,2.95
2022-07-29T11:02:27.765Z,2.92
2022-07-29T11:05:32.001Z,3.35
2022-07-29T11:08:37.910Z,3.35
2022-07-29T11:11:43.966Z,2.78
2022-07-29T11:14:53.709Z,3.42
2022-07-29T11:17:59.702Z,3.50
2022-07-29T11:21:26.252Z,3.28
2022-07-29T11:25:18.224Z,3.83
2022-07-29T11:28:25.243Z,3.03
2022-07-29T11:31:45.411Z,3.30
2022-07-29T11:35:17.713Z,3.22
2022-07-29T11:38:24.109Z,3.13
2022-07-29T11:41:38.354Z,3.40
2022-07-29T11:44:57.754Z,4.10
2022-07-29T11:48:31.483Z,3.57
2022-07-29T11:51:33.726Z,3.88
2022-07-29T11:54:57.109Z,3.28
2022-07-29T11:58:04.672Z,3.42
2022-07-29T12:01:15.719Z,3.95
2022-07-29T12:04:21.062Z,3.28
2022-07-29T12:07:37.343Z,2.92
2022-07-29T12:10:44.878Z,3.80
2022-07-29T12:13:51.879Z,3.00
2022-07-29T12:16:58.404Z,3.45
2022-07-29T12:20:05.835Z,3.33
2022-07-29T12:23:14.572Z,3.05
2022-07-29T12:26:25.803Z,3.00
2022-07-29T12:29:34.893Z,3.22
2022-07-29T12:32:42.162Z,3.58
2022-07-29T12:36:15.616Z,3.47
2022-07-29T12:39:23.782Z,3.50
2022-07-29T12:42:29.115Z,3.20
2022-07-29T12:45:34.455Z,3.38
2022-07-29T12:48:42.828Z,2.92
2022-07-29T12:51:48.173Z,3.92
2022-07-29T12:54:53.608Z,3.35
2022-07-29T12:57:59.342Z,3.78
2022-07-29T13:01:19.351Z,3.08
2022-07-29T13:04:33.682Z,3.10
2022-07-29T13:08:29.548Z,2.80
2022-07-29T13:11:06.691Z,3.35
2022-07-29T13:14:15.679Z,3.55
2022-07-29T13:17:32.840Z,3.63
2022-07-29T13:20:38.509Z,3.58
2022-07-29T13:23:44.657Z,3.05
2022-07-29T13:26:50.599Z,2.78
2022-07-29T13:29:58.923Z,3.67
2022-07-29T13:33:04.562Z,3.58
2022-07-29T13:36:10.584Z,2.90
2022-07-29T13:39:16.434Z,3.90
2022-07-29T13:42:22.112Z,3.22
2022-07-29T13:45:29.246Z,3.03
2022-07-29T13:48:34.991Z,3.40
2022-07-29T13:51:41.104Z,2.55
2022-07-29T13:54:46.688Z,3.60
2022-07-29T13:57:52.346Z,2.90
2022-07-29T14:00:58.211Z,3.67
2022-07-29T14:04:04.683Z,3.50
2022-07-29T14:07:11.494Z,3.22
2022-07-29T14:10:21.849Z,3.70
2022-07-29T14:13:27.794Z,3.35
2022-07-29T14:16:33.411Z,3.13
2022-07-29T14:19:40.241Z,3.28
2022-07-29T14:22:45.952Z,3.83
2022-07-29T14:25:51.572Z,3.10
2022-07-29T14:28:56.826Z,3.30
2022-07-29T14:32:02.830Z,3.65
2022-07-29T14:35:09.325Z,3.67
2022-07-29T14:38:14.556Z,3.42
2022-07-29T14:41:20.255Z,3.55
2022-07-29T14:44:30.680Z,4.22
2022-07-29T14:50:42.213Z,5.82
2022-07-29T14:53:48.011Z,3.92
2022-07-29T14:56:58.761Z,3.88
2022-07-29T15:00:08.660Z,3.47
2022-07-29T15:03:24.233Z,3.55
2022-07-29T15:06:30.532Z,4.05
2022-07-29T15:09:36.296Z,3.40
2022-07-29T15:12:45.789Z,3.88
2022-07-29T15:15:51.335Z,3.85
2022-07-29T15:19:01.353Z,3.50
2022-07-29T15:22:07.245Z,5.28
2022-07-29T15:25:12.982Z,4.55
2022-07-29T15:28:18.656Z,5.10
2022-07-29T15:31:24.339Z,4.43
2022-07-29T15:34:29.903Z,5.20
2022-07-29T15:37:48.710Z,5.68
2022-07-29T15:40:55.850Z,5.77
2022-07-29T15:44:01.857Z,5.95
2022-07-29T15:47:07.636Z,5.82
2022-07-29T15:50:16.416Z,5.47
2022-07-29T15:53:22.077Z,7.05
2022-07-29T15:56:28.245Z,8.43
2022-07-29T15:59:34.079Z,9.23
2022-07-29T16:02:39.710Z,10.10
2022-07-29T16:05:45.467Z,7.55
2022-07-29T16:08:51.023Z,9.25
2022-07-29T16:11:57.212Z,8.60
2022-07-29T16:15:07.575Z,10.70
2022-07-29T16:18:15.058Z,10.55
2022-07-29T16:21:23.197Z,8.90
2022-07-29T16:24:30.305Z,7.65
2022-07-29T16:27:38.136Z,8.50
2022-07-29T16:30:43.976Z,8.13
2022-07-29T16:33:55.675Z,7.07
2022-07-29T16:37:02.493Z,6.35
2022-07-29T16:40:11.608Z,6.70
2022-07-29T16:43:17.845Z,8.07
2022-07-29T16:46:24.373Z,10.55
2022-07-29T16:49:31.764Z,8.57
2022-07-29T16:52:38.696Z,8.98
2022-07-29T16:55:44.509Z,11.02
2022-07-29T16:58:49.972Z,12.70
2022-07-29T17:01:56.003Z,12.27
2022-07-29T17:05:02.729Z,13.32
2022-07-29T17:08:08.290Z,11.20
2022-07-29T17:11:13.909Z,11.43
2022-07-29T17:14:25.431Z,11.68
2022-07-29T17:17:39.132Z,12.25
2022-07-29T17:20:56.850Z,11.60
2022-07-29T17:24:02.257Z,12.52
2022-07-29T17:27:08.957Z,13.48
2022-07-29T17:30:14.418Z,13.52
2022-07-29T17:33:20.263Z,12.50
2022-07-29T17:36:27.188Z,12.50
2022-07-29T17:39:34.362Z,14.18
2022-07-29T17:42:40.851Z,13.15
2022-07-29T17:45:50.132Z,12.32
2022-07-29T17:48:57.760Z,12.35
2022-07-29T17:52:02.873Z,12.95
2022-07-29T17:55:10.601Z,13.07
2022-07-29T17:58:16.753Z,11.57
2022-07-29T18:01:22.199Z,12.32
2022-07-29T18:04:29.059Z,13.15
2022-07-29T18:07:34.489Z,13.30
2022-07-29T18:10:41.710Z,13.15
2022-07-29T18:13:46.937Z,13.32
2022-07-29T18:16:52.381Z,14.02
2022-07-29T18:19:57.877Z,11.48
2022-07-29T18:23:03.124Z,10.45
2022-07-29T18:26:09.322Z,8.20
2022-07-29T18:29:14.778Z,9.00
2022-07-29T18:32:29.068Z,9.60
2022-07-29T18:35:35.038Z,11.75
2022-07-29T18:38:41.823Z,10.82
2022-07-29T18:41:50.122Z,9.75
2022-07-29T18:44:57.851Z,8.85
2022-07-29T18:48:03.971Z,7.95
2022-07-29T18:51:09.917Z,8.23
2022-07-29T18:54:15.641Z,8.02
2022-07-29T18:57:55.392Z,7.68
2022-07-29T19:00:46.986Z,8.45
2022-07-29T19:03:52.051Z,9.23
2022-07-29T19:07:03.235Z,11.73
2022-07-29T19:10:09.648Z,10.30
2022-07-29T19:13:15.671Z,10.43
2022-07-29T19:16:21.751Z,10.38
2022-07-29T19:19:27.469Z,9.93
2022-07-29T19:22:33.884Z,10.85
2022-07-29T19:25:53.155Z,10.30
2022-07-29T19:32:09.453Z,7.45
2022-07-29T19:35:33.365Z,6.78
2022-07-29T19:38:39.988Z,6.57
2022-07-29T19:41:45.755Z,6.88
2022-07-29T19:44:51.865Z,7.20
2022-07-29T19:48:01.304Z,7.07
2022-07-29T19:51:07.258Z,7.57
2022-07-29T19:54:12.551Z,6.88
2022-07-29T19:57:18.082Z,6.72
2022-07-29T20:00:24.683Z,6.78
2022-07-29T20:03:30.214Z,8.10
2022-07-29T20:06:35.968Z,7.68
2022-07-29T20:09:43.088Z,7.55
2022-07-29T20:12:48.960Z,8.05
2022-07-29T20:15:58.403Z,7.68
2022-07-29T20:19:04.472Z,8.00
2022-07-29T20:22:10.685Z,7.28
2022-07-29T20:25:16.394Z,6.85
2022-07-29T20:28:22.254Z,7.50
2022-07-29T20:31:28.452Z,8.38
2022-07-29T20:34:34.623Z,6.82
2022-07-29T20:37:52.380Z,7.20
2022-07-29T20:41:02.317Z,8.23
2022-07-29T20:44:08.245Z,7.22
2022-07-29T20:47:14.046Z,8.13
2022-07-29T20:50:23.727Z,8.90
2022-07-29T20:53:30.590Z,9.80
2022-07-29T20:56:36.444Z,9.68
2022-07-29T20:59:45.819Z,10.63
2022-07-29T21:02:51.987Z,10.00
2022-07-29T21:05:57.971Z,9.63
2022-07-29T21:09:04.137Z,10.15
2022-07-29T21:12:11.408Z,10.75
2022-07-29T21:15:18.776Z,10.27
2022-07-29T21:18:27.862Z,9.88
2022-07-29T21:21:33.732Z,9.18
2022-07-29T21:24:39.560Z,9.88
2022-07-29T21:28:04.005Z,8.48
2022-07-29T21:31:13.006Z,8.50
2022-07-29T21:34:18.712Z,8.65
2022-07-29T21:37:24.568Z,8.90
2022-07-29T21:40:31.209Z,7.60
2022-07-29T21:43:37.222Z,6.53
2022-07-29T21:46:48.321Z,5.57
2022-07-29T21:49:53.734Z,6.05
2022-07-29T21:52:59.587Z,5.05
2022-07-29T21:56:05.412Z,5.93
2022-07-29T21:59:13.574Z,5.57
2022-07-29T22:02:18.993Z,4.95
2022-07-29T22:05:24.652Z,4.45
2022-07-29T22:08:30.332Z,4.65
2022-07-29T22:11:37.237Z,5.32
2022-07-29T22:14:42.977Z,5.13
2022-07-29T22:17:48.917Z,4.72
2022-07-29T22:20:54.338Z,4.80
2022-07-29T22:24:01.818Z,4.82
2022-07-29T22:27:07.363Z,4.38
2022-07-29T22:30:13.843Z,4.25
2022-07-29T22:33:19.501Z,5.38
2022-07-29T22:36:26.376Z,4.30
2022-07-29T22:39:31.894Z,4.78
2022-07-29T22:42:40.684Z,4.88
2022-07-29T22:45:46.647Z,5.63
2022-07-29T22:48:52.022Z,5.47
2022-07-29T22:51:57.816Z,4.70
2022-07-29T22:55:04.904Z,4.30
2022-07-29T22:58:11.186Z,5.32
2022-07-29T23:01:36.031Z,5.45
2022-07-29T23:04:44.076Z,5.75
2022-07-29T23:07:49.584Z,6.20
2022-07-29T23:10:55.311Z,5.47
2022-07-29T23:14:01.082Z,5.32
2022-07-29T23:17:06.687Z,5.93
2022-07-29T23:20:14.819Z,5.80
2022-07-29T23:23:21.129Z,6.65
2022-07-29T23:26:26.670Z,6.00
2022-07-29T23:29:36.670Z,6.85
2022-07-29T23:32:42.932Z,6.28
2022-07-29T23:35:48.690Z,6.75
2022-07-29T23:38:55.512Z,6.65
2022-07-29T23:42:01.136Z,7.25
2022-07-29T23:45:07.954Z,7.18
2022-07-29T23:48:14.880Z,7.47
2022-07-29T23:51:21.307Z,6.90
2022-07-29T23:54:26.711Z,7.35
2022-07-29T23:57:32.381Z,6.90
